sensor_id;sensor_type;location;lat;lon;timestamp;P1;durP1;ratioP1;P2;durP2;ratioP2
25962;SDS011;13760;52.588;13.406;2023-03-14T00:01:56;3.92;;;1.40;;
25962;SDS011;13760;52.588;13.406;2023-03-14T00:04:22;2.50;;;1.35;;
25962;SDS011;13760;52.588;13.406;2023-03-14T00:06:47;3.20;;;1.30;;
25962;SDS011;13760;52.588;13.406;2023-03-14T00:09:14;1.63;;;1.02;;
25962;SDS011;13760;52.588;13.406;2023-03-14T00:11:40;4.53;;;1.25;;
25962;SDS011;13760;52.588;13.406;2023-03-14T00:14:06;2.03;;;1.30;;
25962;SDS011;13760;52.588;13.406;2023-03-14T00:16:32;2.30;;;1.10;;
25962;SDS011;13760;52.588;13.406;2023-03-14T00:19:00;3.17;;;1.25;;
25962;SDS011;13760;52.588;13.406;2023-03-14T00:21:26;3.17;;;1.15;;
25962;SDS011;13760;52.588;13.406;2023-03-14T00:23:52;2.67;;;1.15;;
25962;SDS011;13760;52.588;13.406;2023-03-14T00:26:18;1.55;;;1.10;;
25962;SDS011;13760;52.588;13.406;2023-03-14T00:28:45;2.78;;;1.20;;
25962;SDS011;13760;52.588;13.406;2023-03-14T00:31:13;2.65;;;1.13;;
25962;SDS011;13760;52.588;13.406;2023-03-14T00:33:40;2.42;;;1.25;;
25962;SDS011;13760;52.588;13.406;2023-03-14T00:36:11;2.58;;;1.27;;
25962;SDS011;13760;52.588;13.406;2023-03-14T00:41:08;1.40;;;1.05;;
25962;SDS011;13760;52.588;13.406;2023-03-14T00:43:35;2.15;;;1.20;;
25962;SDS011;13760;52.588;13.406;2023-03-14T00:46:01;2.80;;;1.20;;
25962;SDS011;13760;52.588;13.406;2023-03-14T00:48:27;2.03;;;1.23;;
25962;SDS011;13760;52.588;13.406;2023-03-14T00:50:53;2.38;;;1.45;;
25962;SDS011;13760;52.588;13.406;2023-03-14T00:53:19;2.10;;;1.50;;
25962;SDS011;13760;52.588;13.406;2023-03-14T00:55:44;2.00;;;1.17;;
25962;SDS011;13760;52.588;13.406;2023-03-14T00:58:10;3.22;;;1.48;;
25962;SDS011;13760;52.588;13.406;2023-03-14T01:00:38;2.53;;;1.40;;
25962;SDS011;13760;52.588;13.406;2023-03-14T01:03:04;2.65;;;1.10;;
25962;SDS011;13760;52.588;13.406;2023-03-14T01:05:30;3.22;;;1.38;;
25962;SDS011;13760;52.588;13.406;2023-03-14T01:07:56;3.10;;;1.35;;
25962;SDS011;13760;52.588;13.406;2023-03-14T01:10:22;1.65;;;1.15;;
25962;SDS011;13760;52.588;13.406;2023-03-14T01:12:48;2.03;;;1.40;;
25962;SDS011;13760;52.588;13.406;2023-03-14T01:15:13;3.58;;;1.45;;
25962;SDS011;13760;52.588;13.406;2023-03-14T01:17:39;1.73;;;1.33;;
25962;SDS011;13760;52.588;13.406;2023-03-14T01:20:06;2.00;;;1.35;;
25962;SDS011;13760;52.588;13.406;2023-03-14T01:22:34;3.53;;;1.63;;
25962;SDS011;13760;52.588;13.406;2023-03-14T01:25:00;2.85;;;1.45;;
25962;SDS011;13760;52.588;13.406;2023-03-14T01:27:26;2.25;;;1.20;;
25962;SDS011;13760;52.588;13.406;2023-03-14T01:29:51;3.17;;;1.63;;
25962;SDS011;13760;52.588;13.406;2023-03-14T01:32:17;4.85;;;1.63;;
25962;SDS011;13760;52.588;13.406;2023-03-14T01:34:49;2.55;;;1.20;;
25962;SDS011;13760;52.588;13.406;2023-03-14T01:37:31;1.70;;;1.13;;
25962;SDS011;13760;52.588;13.406;2023-03-14T01:39:56;2.65;;;1.25;;
25962;SDS011;13760;52.588;13.406;2023-03-14T01:42:22;1.98;;;1.20;;
25962;SDS011;13760;52.588;13.406;2023-03-14T01:47:18;2.20;;;1.33;;
25962;SDS011;13760;52.588;13.406;2023-03-14T01:49:44;3.10;;;1.30;;
25962;SDS011;13760;52.588;13.406;2023-03-14T01:52:18;1.40;;;1.13;;
25962;SDS011;13760;52.588;13.406;2023-03-14T01:54:49;2.28;;;1.10;;
25962;SDS011;13760;52.588;13.406;2023-03-14T01:57:32;4.22;;;1.40;;
25962;SDS011;13760;52.588;13.406;2023-03-14T02:00:07;1.85;;;1.30;;
25962;SDS011;13760;52.588;13.406;2023-03-14T02:02:39;3.85;;;1.63;;
25962;SDS011;13760;52.588;13.406;2023-03-14T02:05:08;2.33;;;1.40;;
25962;SDS011;13760;52.588;13.406;2023-03-14T02:07:36;1.80;;;1.20;;
25962;SDS011;13760;52.588;13.406;2023-03-14T02:10:03;2.33;;;1.00;;
25962;SDS011;13760;52.588;13.406;2023-03-14T02:12:30;1.70;;;1.38;;
25962;SDS011;13760;52.588;13.406;2023-03-14T02:14:57;2.08;;;1.15;;
25962;SDS011;13760;52.588;13.406;2023-03-14T02:17:23;1.95;;;1.17;;
25962;SDS011;13760;52.588;13.406;2023-03-14T02:22:44;3.53;;;1.10;;
25962;SDS011;13760;52.588;13.406;2023-03-14T02:27:49;2.78;;;1.10;;
25962;SDS011;13760;52.588;13.406;2023-03-14T02:30:19;3.08;;;1.20;;
25962;SDS011;13760;52.588;13.406;2023-03-14T02:32:47;2.70;;;1.15;;
25962;SDS011;13760;52.588;13.406;2023-03-14T02:35:18;3.10;;;1.10;;
25962;SDS011;13760;52.588;13.406;2023-03-14T02:37:48;1.85;;;1.15;;
25962;SDS011;13760;52.588;13.406;2023-03-14T02:40:19;4.43;;;1.30;;
25962;SDS011;13760;52.588;13.406;2023-03-14T02:46:08;1.90;;;1.02;;
25962;SDS011;13760;52.588;13.406;2023-03-14T02:49:12;1.58;;;0.90;;
25962;SDS011;13760;52.588;13.406;2023-03-14T02:51:32;2.13;;;1.20;;
25962;SDS011;13760;52.588;13.406;2023-03-14T02:53:58;1.98;;;1.00;;
25962;SDS011;13760;52.588;13.406;2023-03-14T02:56:24;2.35;;;1.10;;
25962;SDS011;13760;52.588;13.406;2023-03-14T02:58:49;3.15;;;1.30;;
25962;SDS011;13760;52.588;13.406;2023-03-14T03:01:15;1.20;;;1.08;;
25962;SDS011;13760;52.588;13.406;2023-03-14T03:03:40;1.90;;;1.00;;
25962;SDS011;13760;52.588;13.406;2023-03-14T03:06:06;3.00;;;1.20;;
25962;SDS011;13760;52.588;13.406;2023-03-14T03:08:32;1.67;;;1.10;;
25962;SDS011;13760;52.588;13.406;2023-03-14T03:10:58;2.05;;;1.17;;
25962;SDS011;13760;52.588;13.406;2023-03-14T03:13:24;1.63;;;1.00;;
25962;SDS011;13760;52.588;13.406;2023-03-14T03:19:11;1.83;;;1.10;;
25962;SDS011;13760;52.588;13.406;2023-03-14T03:21:38;2.00;;;0.90;;
25962;SDS011;13760;52.588;13.406;2023-03-14T03:24:04;1.98;;;0.95;;
25962;SDS011;13760;52.588;13.406;2023-03-14T03:26:30;2.67;;;1.00;;
25962;SDS011;13760;52.588;13.406;2023-03-14T03:28:55;1.92;;;1.20;;
25962;SDS011;13760;52.588;13.406;2023-03-14T03:31:21;1.10;;;0.90;;
25962;SDS011;13760;52.588;13.406;2023-03-14T03:33:47;2.85;;;1.23;;
25962;SDS011;13760;52.588;13.406;2023-03-14T03:36:12;3.75;;;1.27;;
25962;SDS011;13760;52.588;13.406;2023-03-14T03:38:38;1.65;;;1.13;;
25962;SDS011;13760;52.588;13.406;2023-03-14T03:41:07;1.55;;;1.00;;
25962;SDS011;13760;52.588;13.406;2023-03-14T03:43:32;3.85;;;1.05;;
25962;SDS011;13760;52.588;13.406;2023-03-14T03:45:58;2.28;;;0.80;;
25962;SDS011;13760;52.588;13.406;2023-03-14T03:48:27;1.10;;;1.00;;
25962;SDS011;13760;52.588;13.406;2023-03-14T03:50:53;3.03;;;1.13;;
25962;SDS011;13760;52.588;13.406;2023-03-14T03:53:18;1.65;;;0.95;;
25962;SDS011;13760;52.588;13.406;2023-03-14T03:55:44;2.88;;;1.20;;
25962;SDS011;13760;52.588;13.406;2023-03-14T03:58:09;3.28;;;1.13;;
25962;SDS011;13760;52.588;13.406;2023-03-14T04:00:35;1.73;;;1.13;;
25962;SDS011;13760;52.588;13.406;2023-03-14T04:03:00;1.25;;;0.85;;
25962;SDS011;13760;52.588;13.406;2023-03-14T04:05:26;2.67;;;1.15;;
25962;SDS011;13760;52.588;13.406;2023-03-14T04:07:51;1.42;;;1.00;;
25962;SDS011;13760;52.588;13.406;2023-03-14T04:10:17;2.88;;;1.20;;
25962;SDS011;13760;52.588;13.406;2023-03-14T04:12:43;2.03;;;1.10;;
25962;SDS011;13760;52.588;13.406;2023-03-14T04:15:09;3.42;;;1.00;;
25962;SDS011;13760;52.588;13.406;2023-03-14T04:17:35;3.85;;;1.17;;
25962;SDS011;13760;52.588;13.406;2023-03-14T04:20:00;3.83;;;1.20;;
25962;SDS011;13760;52.588;13.406;2023-03-14T04:22:26;1.75;;;1.20;;
25962;SDS011;13760;52.588;13.406;2023-03-14T04:24:51;2.88;;;1.15;;
25962;SDS011;13760;52.588;13.406;2023-03-14T04:27:17;1.25;;;1.00;;
25962;SDS011;13760;52.588;13.406;2023-03-14T04:29:43;1.83;;;1.00;;
25962;SDS011;13760;52.588;13.406;2023-03-14T04:32:08;3.33;;;1.10;;
25962;SDS011;13760;52.588;13.406;2023-03-14T04:34:34;3.33;;;1.35;;
25962;SDS011;13760;52.588;13.406;2023-03-14T04:36:59;1.85;;;1.10;;
25962;SDS011;13760;52.588;13.406;2023-03-14T04:39:25;3.85;;;1.20;;
25962;SDS011;13760;52.588;13.406;2023-03-14T04:41:51;3.25;;;1.40;;
25962;SDS011;13760;52.588;13.406;2023-03-14T04:44:17;2.85;;;1.30;;
25962;SDS011;13760;52.588;13.406;2023-03-14T04:46:42;1.67;;;1.17;;
25962;SDS011;13760;52.588;13.406;2023-03-14T04:49:08;2.65;;;1.20;;
25962;SDS011;13760;52.588;13.406;2023-03-14T04:51:33;1.80;;;1.00;;
25962;SDS011;13760;52.588;13.406;2023-03-14T04:53:59;2.05;;;1.17;;
25962;SDS011;13760;52.588;13.406;2023-03-14T04:56:24;2.47;;;1.05;;
25962;SDS011;13760;52.588;13.406;2023-03-14T04:58:50;1.85;;;1.17;;
25962;SDS011;13760;52.588;13.406;2023-03-14T05:01:16;1.42;;;1.08;;
25962;SDS011;13760;52.588;13.406;2023-03-14T05:03:42;1.58;;;1.00;;
25962;SDS011;13760;52.588;13.406;2023-03-14T05:06:08;2.28;;;1.10;;
25962;SDS011;13760;52.588;13.406;2023-03-14T05:08:33;5.22;;;1.35;;
25962;SDS011;13760;52.588;13.406;2023-03-14T05:10:59;2.25;;;1.10;;
25962;SDS011;13760;52.588;13.406;2023-03-14T05:13:25;3.55;;;1.00;;
25962;SDS011;13760;52.588;13.406;2023-03-14T05:15:50;1.13;;;0.88;;
25962;SDS011;13760;52.588;13.406;2023-03-14T05:18:16;1.92;;;1.15;;
25962;SDS011;13760;52.588;13.406;2023-03-14T05:20:43;3.45;;;1.00;;
25962;SDS011;13760;52.588;13.406;2023-03-14T05:23:09;2.50;;;1.30;;
25962;SDS011;13760;52.588;13.406;2023-03-14T05:25:34;1.63;;;1.20;;
25962;SDS011;13760;52.588;13.406;2023-03-14T05:28:00;1.73;;;1.00;;
25962;SDS011;13760;52.588;13.406;2023-03-14T05:30:25;4.45;;;1.30;;
25962;SDS011;13760;52.588;13.406;2023-03-14T05:32:53;2.15;;;1.25;;
25962;SDS011;13760;52.588;13.406;2023-03-14T05:35:19;2.60;;;1.13;;
25962;SDS011;13760;52.588;13.406;2023-03-14T05:37:45;3.05;;;1.10;;
25962;SDS011;13760;52.588;13.406;2023-03-14T05:40:10;2.65;;;1.10;;
25962;SDS011;13760;52.588;13.406;2023-03-14T05:42:36;2.67;;;1.30;;
25962;SDS011;13760;52.588;13.406;2023-03-14T05:45:02;3.22;;;1.10;;
25962;SDS011;13760;52.588;13.406;2023-03-14T05:47:27;3.58;;;1.52;;
25962;SDS011;13760;52.588;13.406;2023-03-14T05:49:53;6.00;;;1.10;;
25962;SDS011;13760;52.588;13.406;2023-03-14T05:52:18;2.88;;;1.05;;
25962;SDS011;13760;52.588;13.406;2023-03-14T05:54:44;4.53;;;1.42;;
25962;SDS011;13760;52.588;13.406;2023-03-14T05:57:09;6.30;;;1.48;;
25962;SDS011;13760;52.588;13.406;2023-03-14T05:59:35;2.15;;;1.10;;
25962;SDS011;13760;52.588;13.406;2023-03-14T06:02:01;3.53;;;1.20;;
25962;SDS011;13760;52.588;13.406;2023-03-14T06:04:26;4.65;;;1.25;;
25962;SDS011;13760;52.588;13.406;2023-03-14T06:06:52;3.58;;;1.35;;
25962;SDS011;13760;52.588;13.406;2023-03-14T06:09:17;2.55;;;1.20;;
25962;SDS011;13760;52.588;13.406;2023-03-14T06:11:44;2.42;;;1.17;;
25962;SDS011;13760;52.588;13.406;2023-03-14T06:14:11;5.05;;;1.50;;
25962;SDS011;13760;52.588;13.406;2023-03-14T06:16:36;4.28;;;2.03;;
25962;SDS011;13760;52.588;13.406;2023-03-14T06:19:02;3.60;;;1.42;;
25962;SDS011;13760;52.588;13.406;2023-03-14T06:21:28;3.78;;;1.58;;
25962;SDS011;13760;52.588;13.406;2023-03-14T06:23:53;5.28;;;1.30;;
25962;SDS011;13760;52.588;13.406;2023-03-14T06:26:19;2.78;;;1.58;;
25962;SDS011;13760;52.588;13.406;2023-03-14T06:28:44;4.70;;;1.77;;
25962;SDS011;13760;52.588;13.406;2023-03-14T06:31:10;3.70;;;1.50;;
25962;SDS011;13760;52.588;13.406;2023-03-14T06:33:36;7.18;;;2.50;;
25962;SDS011;13760;52.588;13.406;2023-03-14T06:36:02;5.28;;;1.83;;
25962;SDS011;13760;52.588;13.406;2023-03-14T06:38:28;5.25;;;1.58;;
25962;SDS011;13760;52.588;13.406;2023-03-14T06:40:53;4.68;;;1.38;;
25962;SDS011;13760;52.588;13.406;2023-03-14T06:43:19;4.72;;;1.50;;
25962;SDS011;13760;52.588;13.406;2023-03-14T06:45:46;6.80;;;1.58;;
25962;SDS011;13760;52.588;13.406;2023-03-14T06:48:12;3.15;;;1.30;;
25962;SDS011;13760;52.588;13.406;2023-03-14T06:50:37;5.78;;;1.42;;
25962;SDS011;13760;52.588;13.406;2023-03-14T06:53:03;8.45;;;1.70;;
25962;SDS011;13760;52.588;13.406;2023-03-14T06:55:29;5.00;;;1.58;;
25962;SDS011;13760;52.588;13.406;2023-03-14T06:57:55;5.05;;;1.55;;
25962;SDS011;13760;52.588;13.406;2023-03-14T07:00:20;5.55;;;1.85;;
25962;SDS011;13760;52.588;13.406;2023-03-14T07:02:46;7.28;;;1.42;;
25962;SDS011;13760;52.588;13.406;2023-03-14T07:05:13;4.75;;;1.70;;
25962;SDS011;13760;52.588;13.406;2023-03-14T07:07:42;6.07;;;1.58;;
25962;SDS011;13760;52.588;13.406;2023-03-14T07:10:08;3.67;;;1.73;;
25962;SDS011;13760;52.588;13.406;2023-03-14T07:12:34;7.57;;;2.10;;
25962;SDS011;13760;52.588;13.406;2023-03-14T07:14:59;4.53;;;1.70;;
25962;SDS011;13760;52.588;13.406;2023-03-14T07:17:25;4.20;;;1.42;;
25962;SDS011;13760;52.588;13.406;2023-03-14T07:19:50;4.00;;;1.58;;
25962;SDS011;13760;52.588;13.406;2023-03-14T07:22:16;4.40;;;1.75;;
25962;SDS011;13760;52.588;13.406;2023-03-14T07:24:41;7.78;;;1.85;;
25962;SDS011;13760;52.588;13.406;2023-03-14T07:27:07;8.57;;;1.80;;
25962;SDS011;13760;52.588;13.406;2023-03-14T07:29:32;4.47;;;1.60;;
25962;SDS011;13760;52.588;13.406;2023-03-14T07:31:58;6.40;;;1.70;;
25962;SDS011;13760;52.588;13.406;2023-03-14T07:34:24;5.30;;;1.75;;
25962;SDS011;13760;52.588;13.406;2023-03-14T07:36:49;4.95;;;1.60;;
25962;SDS011;13760;52.588;13.406;2023-03-14T07:39:15;6.38;;;2.28;;
25962;SDS011;13760;52.588;13.406;2023-03-14T07:41:40;8.27;;;1.77;;
25962;SDS011;13760;52.588;13.406;2023-03-14T07:44:06;3.05;;;1.50;;
25962;SDS011;13760;52.588;13.406;2023-03-14T07:46:31;5.07;;;1.65;;
25962;SDS011;13760;52.588;13.406;2023-03-14T07:49:08;13.88;;;1.80;;
25962;SDS011;13760;52.588;13.406;2023-03-14T07:51:33;6.00;;;1.70;;
25962;SDS011;13760;52.588;13.406;2023-03-14T07:53:59;6.22;;;1.75;;
25962;SDS011;13760;52.588;13.406;2023-03-14T07:56:24;7.13;;;1.40;;
25962;SDS011;13760;52.588;13.406;2023-03-14T07:58:50;4.00;;;1.65;;
25962;SDS011;13760;52.588;13.406;2023-03-14T08:01:15;3.80;;;1.38;;
25962;SDS011;13760;52.588;13.406;2023-03-14T08:03:41;4.65;;;1.80;;
25962;SDS011;13760;52.588;13.406;2023-03-14T08:06:06;5.43;;;1.63;;
25962;SDS011;13760;52.588;13.406;2023-03-14T08:08:32;6.38;;;1.70;;
25962;SDS011;13760;52.588;13.406;2023-03-14T08:11:04;9.32;;;2.30;;
25962;SDS011;13760;52.588;13.406;2023-03-14T08:13:33;5.47;;;1.50;;
25962;SDS011;13760;52.588;13.406;2023-03-14T08:15:59;6.25;;;1.67;;
25962;SDS011;13760;52.588;13.406;2023-03-14T08:18:24;5.32;;;1.65;;
25962;SDS011;13760;52.588;13.406;2023-03-14T08:20:50;4.97;;;1.48;;
25962;SDS011;13760;52.588;13.406;2023-03-14T08:23:15;10.85;;;1.80;;
25962;SDS011;13760;52.588;13.406;2023-03-14T08:25:41;5.72;;;1.55;;
25962;SDS011;13760;52.588;13.406;2023-03-14T08:28:06;5.32;;;1.77;;
25962;SDS011;13760;52.588;13.406;2023-03-14T08:30:32;8.00;;;1.95;;
25962;SDS011;13760;52.588;13.406;2023-03-14T08:32:57;5.03;;;1.60;;
25962;SDS011;13760;52.588;13.406;2023-03-14T08:35:24;7.82;;;1.38;;
25962;SDS011;13760;52.588;13.406;2023-03-14T08:37:50;6.85;;;1.40;;
25962;SDS011;13760;52.588;13.406;2023-03-14T08:40:17;7.07;;;1.48;;
25962;SDS011;13760;52.588;13.406;2023-03-14T08:42:43;5.78;;;1.80;;
25962;SDS011;13760;52.588;13.406;2023-03-14T08:45:11;9.40;;;2.00;;
25962;SDS011;13760;52.588;13.406;2023-03-14T08:47:41;7.05;;;1.58;;
25962;SDS011;13760;52.588;13.406;2023-03-14T08:50:07;5.20;;;1.55;;
25962;SDS011;13760;52.588;13.406;2023-03-14T08:52:34;6.60;;;1.40;;
25962;SDS011;13760;52.588;13.406;2023-03-14T08:54:59;4.63;;;1.40;;
25962;SDS011;13760;52.588;13.406;2023-03-14T08:57:25;6.30;;;1.50;;
25962;SDS011;13760;52.588;13.406;2023-03-14T08:59:57;5.95;;;1.48;;
25962;SDS011;13760;52.588;13.406;2023-03-14T09:02:23;5.63;;;1.70;;
25962;SDS011;13760;52.588;13.406;2023-03-14T09:04:50;2.75;;;1.10;;
25962;SDS011;13760;52.588;13.406;2023-03-14T09:07:16;4.82;;;1.55;;
25962;SDS011;13760;52.588;13.406;2023-03-14T09:09:42;4.85;;;1.50;;
25962;SDS011;13760;52.588;13.406;2023-03-14T09:12:07;5.15;;;1.55;;
25962;SDS011;13760;52.588;13.406;2023-03-14T09:14:33;4.47;;;1.40;;
25962;SDS011;13760;52.588;13.406;2023-03-14T09:16:59;6.45;;;1.45;;
25962;SDS011;13760;52.588;13.406;2023-03-14T09:19:24;3.75;;;1.33;;
25962;SDS011;13760;52.588;13.406;2023-03-14T09:21:50;3.30;;;1.27;;
25962;SDS011;13760;52.588;13.406;2023-03-14T09:24:16;5.28;;;1.58;;
25962;SDS011;13760;52.588;13.406;2023-03-14T09:26:42;4.53;;;1.30;;
25962;SDS011;13760;52.588;13.406;2023-03-14T09:29:08;5.70;;;1.13;;
25962;SDS011;13760;52.588;13.406;2023-03-14T09:31:33;6.40;;;1.27;;
25962;SDS011;13760;52.588;13.406;2023-03-14T09:33:59;4.18;;;1.20;;
25962;SDS011;13760;52.588;13.406;2023-03-14T09:36:25;6.15;;;1.60;;
25962;SDS011;13760;52.588;13.406;2023-03-14T09:38:51;4.97;;;1.30;;
25962;SDS011;13760;52.588;13.406;2023-03-14T09:41:17;7.82;;;1.63;;
25962;SDS011;13760;52.588;13.406;2023-03-14T09:43:53;5.72;;;1.30;;
25962;SDS011;13760;52.588;13.406;2023-03-14T09:46:28;7.68;;;1.48;;
25962;SDS011;13760;52.588;13.406;2023-03-14T09:48:55;6.78;;;1.30;;
25962;SDS011;13760;52.588;13.406;2023-03-14T09:51:21;3.58;;;0.90;;
25962;SDS011;13760;52.588;13.406;2023-03-14T09:53:49;3.95;;;1.33;;
25962;SDS011;13760;52.588;13.406;2023-03-14T09:56:23;4.15;;;1.15;;
25962;SDS011;13760;52.588;13.406;2023-03-14T09:58:55;4.90;;;1.48;;
25962;SDS011;13760;52.588;13.406;2023-03-14T10:01:28;6.22;;;1.30;;
25962;SDS011;13760;52.588;13.406;2023-03-14T10:03:56;4.90;;;1.23;;
25962;SDS011;13760;52.588;13.406;2023-03-14T10:06:29;4.07;;;1.23;;
25962;SDS011;13760;52.588;13.406;2023-03-14T10:08:55;7.43;;;1.40;;
25962;SDS011;13760;52.588;13.406;2023-03-14T10:11:24;5.63;;;1.48;;
25962;SDS011;13760;52.588;13.406;2023-03-14T10:14:09;2.60;;;1.10;;
25962;SDS011;13760;52.588;13.406;2023-03-14T10:16:45;6.28;;;1.40;;
25962;SDS011;13760;52.588;13.406;2023-03-14T10:19:15;3.22;;;1.00;;
25962;SDS011;13760;52.588;13.406;2023-03-14T10:21:42;4.40;;;1.50;;
25962;SDS011;13760;52.588;13.406;2023-03-14T10:24:10;5.45;;;1.30;;
25962;SDS011;13760;52.588;13.406;2023-03-14T10:26:54;7.65;;;1.40;;
25962;SDS011;13760;52.588;13.406;2023-03-14T10:29:23;4.93;;;1.20;;
25962;SDS011;13760;52.588;13.406;2023-03-14T10:31:52;5.68;;;1.40;;
25962;SDS011;13760;52.588;13.406;2023-03-14T10:34:27;6.10;;;1.50;;
25962;SDS011;13760;52.588;13.406;2023-03-14T10:36:59;4.47;;;1.42;;
25962;SDS011;13760;52.588;13.406;2023-03-14T10:39:47;4.10;;;1.25;;
25962;SDS011;13760;52.588;13.406;2023-03-14T10:42:25;3.90;;;1.30;;
25962;SDS011;13760;52.588;13.406;2023-03-14T10:45:03;2.17;;;0.90;;
25962;SDS011;13760;52.588;13.406;2023-03-14T10:47:32;6.40;;;1.45;;
25962;SDS011;13760;52.588;13.406;2023-03-14T10:50:19;5.57;;;1.30;;
25962;SDS011;13760;52.588;13.406;2023-03-14T10:52:47;7.53;;;1.20;;
25962;SDS011;13760;52.588;13.406;2023-03-14T10:55:16;7.28;;;1.45;;
25962;SDS011;13760;52.588;13.406;2023-03-14T10:57:48;5.10;;;1.10;;
25962;SDS011;13760;52.588;13.406;2023-03-14T11:00:14;3.78;;;1.17;;
25962;SDS011;13760;52.588;13.406;2023-03-14T11:02:58;4.22;;;1.20;;
25962;SDS011;13760;52.588;13.406;2023-03-14T11:05:40;3.35;;;1.00;;
25962;SDS011;13760;52.588;13.406;2023-03-14T11:10:45;5.05;;;1.10;;
25962;SDS011;13760;52.588;13.406;2023-03-14T11:15:58;5.82;;;1.20;;
25962;SDS011;13760;52.588;13.406;2023-03-14T11:21:28;5.32;;;1.20;;
25962;SDS011;13760;52.588;13.406;2023-03-14T11:26:53;3.83;;;1.00;;
25962;SDS011;13760;52.588;13.406;2023-03-14T11:29:36;5.63;;;1.48;;
25962;SDS011;13760;52.588;13.406;2023-03-14T11:32:11;4.78;;;1.10;;
25962;SDS011;13760;52.588;13.406;2023-03-14T11:34:49;2.45;;;1.10;;
25962;SDS011;13760;52.588;13.406;2023-03-14T11:38:00;5.18;;;1.00;;
25962;SDS011;13760;52.588;13.406;2023-03-14T11:40:18;2.90;;;1.00;;
25962;SDS011;13760;52.588;13.406;2023-03-14T11:42:47;5.13;;;1.10;;
25962;SDS011;13760;52.588;13.406;2023-03-14T11:45:26;5.03;;;1.38;;
25962;SDS011;13760;52.588;13.406;2023-03-14T11:50:55;5.03;;;1.13;;
25962;SDS011;13760;52.588;13.406;2023-03-14T11:53:25;3.90;;;1.42;;
25962;SDS011;13760;52.588;13.406;2023-03-14T11:56:16;3.33;;;1.30;;
25962;SDS011;13760;52.588;13.406;2023-03-14T11:58:51;3.47;;;1.02;;
25962;SDS011;13760;52.588;13.406;2023-03-14T12:01:22;5.13;;;1.27;;
25962;SDS011;13760;52.588;13.406;2023-03-14T12:04:00;5.28;;;0.90;;
25962;SDS011;13760;52.588;13.406;2023-03-14T12:06:28;7.40;;;1.00;;
25962;SDS011;13760;52.588;13.406;2023-03-14T12:09:03;2.05;;;0.88;;
25962;SDS011;13760;52.588;13.406;2023-03-14T12:14:21;3.35;;;1.27;;
25962;SDS011;13760;52.588;13.406;2023-03-14T12:16:47;3.25;;;1.00;;
25962;SDS011;13760;52.588;13.406;2023-03-14T12:24:26;1.70;;;0.90;;
25962;SDS011;13760;52.588;13.406;2023-03-14T12:26:59;4.85;;;1.00;;
25962;SDS011;13760;52.588;13.406;2023-03-14T12:29:27;3.10;;;0.80;;
25962;SDS011;13760;52.588;13.406;2023-03-14T12:34:33;3.40;;;0.85;;
25962;SDS011;13760;52.588;13.406;2023-03-14T12:37:05;2.65;;;1.10;;
25962;SDS011;13760;52.588;13.406;2023-03-14T12:39:40;2.90;;;0.93;;
25962;SDS011;13760;52.588;13.406;2023-03-14T12:45:30;3.08;;;0.70;;
25962;SDS011;13760;52.588;13.406;2023-03-14T12:50:39;3.75;;;0.90;;
25962;SDS011;13760;52.588;13.406;2023-03-14T12:58:43;5.45;;;1.00;;
25962;SDS011;13760;52.588;13.406;2023-03-14T13:01:17;2.17;;;0.80;;
25962;SDS011;13760;52.588;13.406;2023-03-14T13:03:47;2.53;;;0.70;;
25962;SDS011;13760;52.588;13.406;2023-03-14T13:11:53;2.00;;;0.75;;
25962;SDS011;13760;52.588;13.406;2023-03-14T13:14:22;2.05;;;0.75;;
25962;SDS011;13760;52.588;13.406;2023-03-14T13:16:48;2.13;;;0.70;;
25962;SDS011;13760;52.588;13.406;2023-03-14T13:19:16;2.33;;;0.90;;
25962;SDS011;13760;52.588;13.406;2023-03-14T13:21:45;3.35;;;0.70;;
25962;SDS011;13760;52.588;13.406;2023-03-14T13:24:21;3.22;;;1.00;;
25962;SDS011;13760;52.588;13.406;2023-03-14T13:26:49;3.88;;;1.13;;
25962;SDS011;13760;52.588;13.406;2023-03-14T13:29:18;1.70;;;0.73;;
25962;SDS011;13760;52.588;13.406;2023-03-14T13:31:47;4.43;;;0.70;;
25962;SDS011;13760;52.588;13.406;2023-03-14T13:34:14;2.42;;;0.70;;
25962;SDS011;13760;52.588;13.406;2023-03-14T13:36:40;0.90;;;0.55;;
25962;SDS011;13760;52.588;13.406;2023-03-14T13:39:17;3.33;;;1.00;;
25962;SDS011;13760;52.588;13.406;2023-03-14T13:41:44;1.42;;;0.80;;
25962;SDS011;13760;52.588;13.406;2023-03-14T13:44:18;2.58;;;0.70;;
25962;SDS011;13760;52.588;13.406;2023-03-14T13:47:04;2.10;;;0.70;;
25962;SDS011;13760;52.588;13.406;2023-03-14T13:49:41;1.35;;;0.70;;
25962;SDS011;13760;52.588;13.406;2023-03-14T13:55:12;3.13;;;0.80;;
25962;SDS011;13760;52.588;13.406;2023-03-14T14:00:25;3.00;;;1.00;;
25962;SDS011;13760;52.588;13.406;2023-03-14T14:02:53;7.90;;;1.02;;
25962;SDS011;13760;52.588;13.406;2023-03-14T14:05:20;2.97;;;1.10;;
25962;SDS011;13760;52.588;13.406;2023-03-14T14:07:46;2.65;;;0.70;;
25962;SDS011;13760;52.588;13.406;2023-03-14T14:10:13;1.77;;;0.80;;
25962;SDS011;13760;52.588;13.406;2023-03-14T14:12:41;5.28;;;0.80;;
25962;SDS011;13760;52.588;13.406;2023-03-14T14:15:21;3.92;;;0.80;;
25962;SDS011;13760;52.588;13.406;2023-03-14T14:20:21;4.32;;;0.60;;
25962;SDS011;13760;52.588;13.406;2023-03-14T14:22:59;2.45;;;0.65;;
25962;SDS011;13760;52.588;13.406;2023-03-14T14:25:31;1.75;;;0.70;;
25962;SDS011;13760;52.588;13.406;2023-03-14T14:27:57;2.42;;;0.60;;
25962;SDS011;13760;52.588;13.406;2023-03-14T14:30:25;1.33;;;0.60;;
25962;SDS011;13760;52.588;13.406;2023-03-14T14:33:11;2.05;;;0.80;;
25962;SDS011;13760;52.588;13.406;2023-03-14T14:36:20;3.20;;;0.70;;
25962;SDS011;13760;52.588;13.406;2023-03-14T14:38:50;2.35;;;0.90;;
25962;SDS011;13760;52.588;13.406;2023-03-14T14:41:17;1.10;;;0.60;;
25962;SDS011;13760;52.588;13.406;2023-03-14T14:43:43;2.95;;;0.77;;
25962;SDS011;13760;52.588;13.406;2023-03-14T14:46:08;2.28;;;0.98;;
25962;SDS011;13760;52.588;13.406;2023-03-14T14:48:38;2.40;;;0.90;;
25962;SDS011;13760;52.588;13.406;2023-03-14T14:51:05;2.25;;;0.80;;
25962;SDS011;13760;52.588;13.406;2023-03-14T14:53:35;1.77;;;0.77;;
25962;SDS011;13760;52.588;13.406;2023-03-14T14:56:04;3.45;;;0.75;;
25962;SDS011;13760;52.588;13.406;2023-03-14T14:58:41;1.75;;;0.63;;
25962;SDS011;13760;52.588;13.406;2023-03-14T15:01:14;1.88;;;0.60;;
25962;SDS011;13760;52.588;13.406;2023-03-14T15:03:49;5.60;;;0.95;;
25962;SDS011;13760;52.588;13.406;2023-03-14T15:06:17;13.60;;;2.40;;
25962;SDS011;13760;52.588;13.406;2023-03-14T15:08:43;3.45;;;0.88;;
25962;SDS011;13760;52.588;13.406;2023-03-14T15:11:18;1.55;;;0.80;;
25962;SDS011;13760;52.588;13.406;2023-03-14T15:13:45;2.25;;;1.00;;
25962;SDS011;13760;52.588;13.406;2023-03-14T15:16:11;4.55;;;1.10;;
25962;SDS011;13760;52.588;13.406;2023-03-14T15:18:38;1.08;;;0.30;;
25962;SDS011;13760;52.588;13.406;2023-03-14T15:21:04;2.45;;;0.50;;
25962;SDS011;13760;52.588;13.406;2023-03-14T15:23:30;1.13;;;0.47;;
25962;SDS011;13760;52.588;13.406;2023-03-14T15:25:56;1.02;;;0.60;;
25962;SDS011;13760;52.588;13.406;2023-03-14T15:28:23;1.55;;;0.38;;
25962;SDS011;13760;52.588;13.406;2023-03-14T15:30:50;5.30;;;0.65;;
25962;SDS011;13760;52.588;13.406;2023-03-14T15:33:18;1.95;;;0.73;;
25962;SDS011;13760;52.588;13.406;2023-03-14T15:35:44;2.28;;;0.60;;
25962;SDS011;13760;52.588;13.406;2023-03-14T15:38:16;2.17;;;0.50;;
25962;SDS011;13760;52.588;13.406;2023-03-14T15:40:50;1.73;;;0.40;;
25962;SDS011;13760;52.588;13.406;2023-03-14T15:43:16;1.58;;;0.50;;
25962;SDS011;13760;52.588;13.406;2023-03-14T15:45:43;2.85;;;0.50;;
25962;SDS011;13760;52.588;13.406;2023-03-14T15:48:18;2.08;;;0.50;;